Cridersville, OH

9:06 PM EDT on May 05, 2015 (GMT -0400)
Lima Allen County | | Change Station
CLOSE
Current Station
Airport
Location: Lima,
Elevation: 974 ft
Nearby Weather Stations

Elev 974 ft 40.71 °N, 84.03 °W | Updated 13 minutes ago

Clear
Clear
63 °F
Feels Like 63 °F
N
14
Wind Variable Wind from NNE

Today
High -- | Low -- °F
--% Chance of Precip.
Yesterday
High -- | Low -- °F
Precip. -- in
6:30 AM 8:36 PM
Waning Gibbous, 96% visible
Pressure 30.20 in
Visibility 7.0 miles
Clouds Clear
Dew Point 57 °F
Humidity 81%
Rainfall 0.19 in
Snow Depth Not available.
UV 0 out of 12
Pollen 10.40 out of 12
Air Quality Not available.
Flu Activity Regional
METAR KAOH 060053Z AUTO 03012KT 7SM CLR 17/14 A3020 RMK AO2 SLP225 T01720139

More Conditions Fewer Conditions

Pressure 30.20 in
Visibility 7.0 miles
Clouds Clear
Dew Point 57 °F
Humidity 81%
Rainfall 0.19 in
Snow Depth Not available.
UV 0 out of 12
Pollen 10.40 out of 12
Air Quality Not available.
Flu Activity Regional
METAR KAOH 060053Z AUTO 03012KT 7SM CLR 17/14 A3020 RMK AO2 SLP225 T01720139

More Conditions Fewer Conditions

10-Day Weather Forecast

Almanac

Astronomy

May. 05, 2015 Rise Set
Actual Time
Civil Twilight
Nautical Twilight
Astronomical Twilight
Moon
Length of Visible Light
Length of Day
Tomorrow will be .
, % of the Moon is Illuminated

Today's Extremes

State Highs State Lows

Community

WunderPhotos

Upload Photos

1,819,026 photos uploaded!

WunderBlogs® & News

Nearby

Air Quality

  Air Quality AQ Index Pollutant
Not available.

Snow Depth

Station Depth Elevation

Earthquake Activity

City Distance Mag. Time & Date
Minimum magnitude displayed is 2.5.

Coastal Water Temperatures

Place Temperature

Stations

Nearby Weather Stations

Station Location Temp. Windchill Dew Point Humidity Wind Precip. Elev Updated Type